This is the latest recevied weather packets stored in our database for station/object WMKD. If no packets are shown the sender has not sent any weather packets the latest 10 day(s).
| Time | Temp. | Humidity | Pressure | Rain* | Wind** | Luminosity | Snow |
|---|---|---|---|---|---|---|---|
| 1777982992 | 30° C | 74% | 1006 hPa | - | - | - | - |
| 1777979393 | 30.56° C | 70% | 1006 hPa | - | - | - | - |
| 1777975792 | 31.67° C | 66% | 1005 hPa | - | - | - | - |
| 1777972195 | 32.78° C | 62% | 1005 hPa | - | - | - | - |
| 1777968591 | 33.89° C | 59% | 1005 hPa | - | - | - | - |
| 1777964991 | 33.89° C | 59% | 1006 hPa | - | - | - | - |
| 1777961391 | 31.67° C | 66% | 1007 hPa | - | - | - | - |
| 1777957794 | 32.78° C | 62% | 1008 hPa | - | - | - | - |
| 1777954191 | 31.67° C | 66% | 1009 hPa | - | - | - | - |
| 1777950591 | 31.67° C | 66% | 1010 hPa | - | - | - | - |
| 1777946991 | 30° C | 74% | 1010 hPa | - | - | - | - |
| 1777943391 | 26.67° C | 88% | 1009 hPa | - | - | - | - |
| 1777939795 | 25° C | 94% | 1009 hPa | - | - | - | - |
| 1777936191 | 23.89° C | 94% | 1008 hPa | - | - | - | - |
| 1777932591 | 23.89° C | 94% | 1008 hPa | - | - | - | - |
| 1777928990 | 23.89° C | 94% | 1008 hPa | - | - | - | - |
| 1777925392 | 23.89° C | 94% | 1008 hPa | - | - | - | - |
| 1777921795 | 25° C | 94% | 1008 hPa | - | - | - | - |
| 1777918194 | 25° C | 88% | 1009 hPa | - | - | - | - |
| 1777914592 | 25° C | 88% | 1010 hPa | - | - | - | - |
| 1777910990 | 25° C | 94% | 1010 hPa | - | - | - | - |
| 1777907393 | 25.56° C | 83% | 1010 hPa | - | - | - | - |
| 1777903792 | 25.56° C | 83% | 1009 hPa | - | - | - | - |
| 1777900190 | 26.67° C | 88% | 1008 hPa | - | - | - | - |
| 1777896590 | 26.67° C | 88% | 1008 hPa | - | - | - | - |
* Rain since midnight (hover to see other rain measurements)
** Current wind speed in m/s (hover to see current wind gust speed)